Ageda, Japón

8:20 PM JST en Febrero 25, 2017 (GMT +0900)
Okinawa Shi | | Change Station

Alt 0 ft 26.33 °N, 127.81 °E | Updated 1 minute ago

Nublado
Nublado
68.0 ° F
Sensación térmica 68.0 ° F
N
3.1
Viento Variable Viento desde NE
Gusts 6.8 mph

Hoy
Alta -- | Baja -- ° F
--% Posibilidad de precipitaciones
Ayer
Alta -- | Baja -- ° F
Precip. -- pul
Presión 30.12 pul
Visibilidad 10.0 Millas
Nubes Nublado 4100 ft
Punto de rocío 61 ° F
Humedad 79%
Precipitaciones 0.01 pul
Espesor de la nieve No disponible.
6:56 AM 6:27 PM
Creciente menguante, 2% visible
METAR RODN 251058Z AUTO 06011KT 10SM -RA OVC041 14/14 A3009 RMK AO2 VIS 2 1/2 RWY23 DZB07E19RAB52 CIG 017 RWY23 SLP197 P0000 T01420142
Presión 30.12 pul
Visibilidad 10.0 Millas
Nubes Nublado 4100 ft
Punto de rocío 61 ° F
Humedad 79%
Precipitaciones 0.01 pul
Espesor de la nieve No disponible.
6:56 AM 6:27 PM
Creciente menguante, 2% visible
METAR RODN 251058Z AUTO 06011KT 10SM -RA OVC041 14/14 A3009 RMK AO2 VIS 2 1/2 RWY23 DZB07E19RAB52 CIG 017 RWY23 SLP197 P0000 T01420142

Get Your Daily Forecast Email!

Thanks for signing up!

Be on the lookout for a verification email in your inbox.

You'll start receiving the daily forecast at 8 AM.

×

10-Day Weather Forecast

No radar image for this location.
×

Almanac

Astronomía

Feb. 25, 2017 Salida Puesta
Hora real
Crepúsculo civil
Crepúsculo náutico
Crepúsculo astronómico
Luna
Horas de luz
Horas de luz
Tomorrow will be .
, % of the Moon is Illuminated

Extremos de hoy

Máximos del país Bajas del país

Community

WunderPhotos

Upload Photos

1,962,540 ¡fotos cargadas!

WunderBlog® & News

Nearby

Calidad del aire

  Calidad del aire Índice AQ Contaminante
Not available.

Grosos de nieve

Estación Profundido Altura

Actividad de terremotos

Ciudad Distance Mag. Tiempo y dato
Magnitud mínima muestra es 2,5.

Temperaturas de aguas costeras

Lugar Temperatura

Stations

Estaciones meteorológicas cercanas

Ubicación de la estación Temp. Vientos helados Punto de rocío Humedad Viento Precip. Alt Actualizado Tipo